sensor_id;sensor_type;location;lat;lon;timestamp;P1;durP1;ratioP1;P2;durP2;ratioP2
46429;SDS011;32131;53.454;-6.180;2023-02-15T00:00:22;9.80;;;3.92;;
46429;SDS011;32131;53.454;-6.180;2023-02-15T00:02:50;11.82;;;3.55;;
46429;SDS011;32131;53.454;-6.180;2023-02-15T00:05:20;10.15;;;3.42;;
46429;SDS011;32131;53.454;-6.180;2023-02-15T00:07:51;19.52;;;4.63;;
46429;SDS011;32131;53.454;-6.180;2023-02-15T00:10:19;18.33;;;4.05;;
46429;SDS011;32131;53.454;-6.180;2023-02-15T00:12:47;10.82;;;4.07;;
46429;SDS011;32131;53.454;-6.180;2023-02-15T00:15:15;14.77;;;4.53;;
46429;SDS011;32131;53.454;-6.180;2023-02-15T00:17:45;14.30;;;4.63;;
46429;SDS011;32131;53.454;-6.180;2023-02-15T00:20:13;19.45;;;4.45;;
46429;SDS011;32131;53.454;-6.180;2023-02-15T00:22:44;11.27;;;4.60;;
46429;SDS011;32131;53.454;-6.180;2023-02-15T00:25:13;18.52;;;4.78;;
46429;SDS011;32131;53.454;-6.180;2023-02-15T00:27:42;13.95;;;5.22;;
46429;SDS011;32131;53.454;-6.180;2023-02-15T00:30:10;19.88;;;5.13;;
46429;SDS011;32131;53.454;-6.180;2023-02-15T00:32:39;16.63;;;5.17;;
46429;SDS011;32131;53.454;-6.180;2023-02-15T00:35:07;14.40;;;5.22;;
46429;SDS011;32131;53.454;-6.180;2023-02-15T00:37:36;14.88;;;5.35;;
46429;SDS011;32131;53.454;-6.180;2023-02-15T00:40:06;26.33;;;5.47;;
46429;SDS011;32131;53.454;-6.180;2023-02-15T00:42:35;23.10;;;6.38;;
46429;SDS011;32131;53.454;-6.180;2023-02-15T00:45:04;23.25;;;6.40;;
46429;SDS011;32131;53.454;-6.180;2023-02-15T00:47:34;13.50;;;4.82;;
46429;SDS011;32131;53.454;-6.180;2023-02-15T00:50:02;14.13;;;5.72;;
46429;SDS011;32131;53.454;-6.180;2023-02-15T00:52:34;24.00;;;6.47;;
46429;SDS011;32131;53.454;-6.180;2023-02-15T00:55:03;12.88;;;5.75;;
46429;SDS011;32131;53.454;-6.180;2023-02-15T00:57:37;16.92;;;6.13;;
46429;SDS011;32131;53.454;-6.180;2023-02-15T01:00:06;20.15;;;5.45;;
46429;SDS011;32131;53.454;-6.180;2023-02-15T01:02:35;19.35;;;6.00;;
46429;SDS011;32131;53.454;-6.180;2023-02-15T01:05:03;18.63;;;6.57;;
46429;SDS011;32131;53.454;-6.180;2023-02-15T01:07:32;15.10;;;5.68;;
46429;SDS011;32131;53.454;-6.180;2023-02-15T01:10:01;15.70;;;6.10;;
46429;SDS011;32131;53.454;-6.180;2023-02-15T01:12:30;13.88;;;5.78;;
46429;SDS011;32131;53.454;-6.180;2023-02-15T01:15:00;14.55;;;5.80;;
46429;SDS011;32131;53.454;-6.180;2023-02-15T01:17:29;21.77;;;6.85;;
46429;SDS011;32131;53.454;-6.180;2023-02-15T01:19:58;17.52;;;7.07;;
46429;SDS011;32131;53.454;-6.180;2023-02-15T01:22:27;23.38;;;6.28;;
46429;SDS011;32131;53.454;-6.180;2023-02-15T01:24:55;18.33;;;6.22;;
46429;SDS011;32131;53.454;-6.180;2023-02-15T01:27:23;16.13;;;6.72;;
46429;SDS011;32131;53.454;-6.180;2023-02-15T01:29:53;19.75;;;7.55;;
46429;SDS011;32131;53.454;-6.180;2023-02-15T01:32:24;28.25;;;8.25;;
46429;SDS011;32131;53.454;-6.180;2023-02-15T01:34:53;17.20;;;7.22;;
46429;SDS011;32131;53.454;-6.180;2023-02-15T01:37:22;20.08;;;6.82;;
46429;SDS011;32131;53.454;-6.180;2023-02-15T01:39:50;23.42;;;8.15;;
46429;SDS011;32131;53.454;-6.180;2023-02-15T01:42:20;21.35;;;7.78;;
46429;SDS011;32131;53.454;-6.180;2023-02-15T01:44:50;18.02;;;7.15;;
46429;SDS011;32131;53.454;-6.180;2023-02-15T01:47:21;18.73;;;8.02;;
46429;SDS011;32131;53.454;-6.180;2023-02-15T01:49:58;24.23;;;7.35;;
46429;SDS011;32131;53.454;-6.180;2023-02-15T01:52:31;19.30;;;7.60;;
46429;SDS011;32131;53.454;-6.180;2023-02-15T01:55:02;18.98;;;6.70;;
46429;SDS011;32131;53.454;-6.180;2023-02-15T01:57:33;19.65;;;7.53;;
46429;SDS011;32131;53.454;-6.180;2023-02-15T02:00:04;20.33;;;7.57;;
46429;SDS011;32131;53.454;-6.180;2023-02-15T02:02:36;24.65;;;8.63;;
46429;SDS011;32131;53.454;-6.180;2023-02-15T02:05:05;22.13;;;7.45;;
46429;SDS011;32131;53.454;-6.180;2023-02-15T02:07:36;21.13;;;8.50;;
46429;SDS011;32131;53.454;-6.180;2023-02-15T02:10:09;22.35;;;8.07;;
46429;SDS011;32131;53.454;-6.180;2023-02-15T02:12:39;17.83;;;8.40;;
46429;SDS011;32131;53.454;-6.180;2023-02-15T02:15:10;24.92;;;8.18;;
46429;SDS011;32131;53.454;-6.180;2023-02-15T02:17:45;21.67;;;8.35;;
46429;SDS011;32131;53.454;-6.180;2023-02-15T02:20:27;16.40;;;8.23;;
46429;SDS011;32131;53.454;-6.180;2023-02-15T02:23:08;20.45;;;8.20;;
46429;SDS011;32131;53.454;-6.180;2023-02-15T02:35:14;20.00;;;9.73;;
46429;SDS011;32131;53.454;-6.180;2023-02-15T02:37:52;24.95;;;10.32;;
46429;SDS011;32131;53.454;-6.180;2023-02-15T02:40:31;30.83;;;9.35;;
46429;SDS011;32131;53.454;-6.180;2023-02-15T02:43:08;21.23;;;8.98;;
46429;SDS011;32131;53.454;-6.180;2023-02-15T02:45:44;36.88;;;11.00;;
46429;SDS011;32131;53.454;-6.180;2023-02-15T02:48:18;25.40;;;10.00;;
46429;SDS011;32131;53.454;-6.180;2023-02-15T02:50:51;38.00;;;10.93;;
46429;SDS011;32131;53.454;-6.180;2023-02-15T02:53:20;28.23;;;11.60;;
46429;SDS011;32131;53.454;-6.180;2023-02-15T02:55:49;30.60;;;10.63;;
46429;SDS011;32131;53.454;-6.180;2023-02-15T02:58:22;29.30;;;11.85;;
46429;SDS011;32131;53.454;-6.180;2023-02-15T03:00:56;36.58;;;12.45;;
46429;SDS011;32131;53.454;-6.180;2023-02-15T03:03:32;35.67;;;11.43;;
46429;SDS011;32131;53.454;-6.180;2023-02-15T03:06:07;31.30;;;11.73;;
46429;SDS011;32131;53.454;-6.180;2023-02-15T03:08:41;31.58;;;11.80;;
46429;SDS011;32131;53.454;-6.180;2023-02-15T03:11:12;29.17;;;11.25;;
46429;SDS011;32131;53.454;-6.180;2023-02-15T03:13:41;24.33;;;11.98;;
46429;SDS011;32131;53.454;-6.180;2023-02-15T03:16:11;31.25;;;12.40;;
46429;SDS011;32131;53.454;-6.180;2023-02-15T03:18:54;34.75;;;12.07;;
46429;SDS011;32131;53.454;-6.180;2023-02-15T03:21:27;37.50;;;12.68;;
46429;SDS011;32131;53.454;-6.180;2023-02-15T03:24:03;28.65;;;12.18;;
46429;SDS011;32131;53.454;-6.180;2023-02-15T03:26:35;35.13;;;13.40;;
46429;SDS011;32131;53.454;-6.180;2023-02-15T03:29:06;32.25;;;14.27;;
46429;SDS011;32131;53.454;-6.180;2023-02-15T03:31:39;31.90;;;13.30;;
46429;SDS011;32131;53.454;-6.180;2023-02-15T03:34:11;31.27;;;12.95;;
46429;SDS011;32131;53.454;-6.180;2023-02-15T03:36:43;31.05;;;14.40;;
46429;SDS011;32131;53.454;-6.180;2023-02-15T03:39:17;31.73;;;13.80;;
46429;SDS011;32131;53.454;-6.180;2023-02-15T03:41:51;32.10;;;13.57;;
46429;SDS011;32131;53.454;-6.180;2023-02-15T03:44:27;39.83;;;13.48;;
46429;SDS011;32131;53.454;-6.180;2023-02-15T03:46:59;28.83;;;12.65;;
46429;SDS011;32131;53.454;-6.180;2023-02-15T03:49:36;38.25;;;13.98;;
46429;SDS011;32131;53.454;-6.180;2023-02-15T03:52:11;35.50;;;13.23;;
46429;SDS011;32131;53.454;-6.180;2023-02-15T03:54:41;36.95;;;14.18;;
46429;SDS011;32131;53.454;-6.180;2023-02-15T03:57:13;27.60;;;12.65;;
46429;SDS011;32131;53.454;-6.180;2023-02-15T04:00:05;39.35;;;13.73;;
46429;SDS011;32131;53.454;-6.180;2023-02-15T04:05:49;31.63;;;13.38;;
46429;SDS011;32131;53.454;-6.180;2023-02-15T04:08:22;28.92;;;13.32;;
46429;SDS011;32131;53.454;-6.180;2023-02-15T04:11:13;30.17;;;13.30;;
46429;SDS011;32131;53.454;-6.180;2023-02-15T04:13:40;33.97;;;13.55;;
46429;SDS011;32131;53.454;-6.180;2023-02-15T04:16:08;32.75;;;13.57;;
46429;SDS011;32131;53.454;-6.180;2023-02-15T04:18:36;29.38;;;12.85;;
46429;SDS011;32131;53.454;-6.180;2023-02-15T04:21:24;37.95;;;12.57;;
46429;SDS011;32131;53.454;-6.180;2023-02-15T04:24:13;26.10;;;11.85;;
46429;SDS011;32131;53.454;-6.180;2023-02-15T04:27:01;25.50;;;11.75;;
46429;SDS011;32131;53.454;-6.180;2023-02-15T04:29:31;32.28;;;11.90;;
46429;SDS011;32131;53.454;-6.180;2023-02-15T04:32:00;26.77;;;11.32;;
46429;SDS011;32131;53.454;-6.180;2023-02-15T04:34:29;32.53;;;11.38;;
46429;SDS011;32131;53.454;-6.180;2023-02-15T04:36:57;23.67;;;9.48;;
46429;SDS011;32131;53.454;-6.180;2023-02-15T04:39:27;26.30;;;9.77;;
46429;SDS011;32131;53.454;-6.180;2023-02-15T04:41:55;30.52;;;10.13;;
46429;SDS011;32131;53.454;-6.180;2023-02-15T04:44:26;18.20;;;9.70;;
46429;SDS011;32131;53.454;-6.180;2023-02-15T04:46:54;22.58;;;8.85;;
46429;SDS011;32131;53.454;-6.180;2023-02-15T04:49:23;25.23;;;9.43;;
46429;SDS011;32131;53.454;-6.180;2023-02-15T04:54:23;22.40;;;9.30;;
46429;SDS011;32131;53.454;-6.180;2023-02-15T04:56:53;21.15;;;7.97;;
46429;SDS011;32131;53.454;-6.180;2023-02-15T04:59:21;24.58;;;7.60;;
46429;SDS011;32131;53.454;-6.180;2023-02-15T05:01:49;16.23;;;8.05;;
46429;SDS011;32131;53.454;-6.180;2023-02-15T05:04:21;21.27;;;7.00;;
46429;SDS011;32131;53.454;-6.180;2023-02-15T05:06:50;18.42;;;7.10;;
46429;SDS011;32131;53.454;-6.180;2023-02-15T05:09:18;22.25;;;7.55;;
46429;SDS011;32131;53.454;-6.180;2023-02-15T05:11:46;16.02;;;7.82;;
46429;SDS011;32131;53.454;-6.180;2023-02-15T05:14:16;20.17;;;7.80;;
46429;SDS011;32131;53.454;-6.180;2023-02-15T05:16:45;17.08;;;6.55;;
46429;SDS011;32131;53.454;-6.180;2023-02-15T05:19:15;21.35;;;7.50;;
46429;SDS011;32131;53.454;-6.180;2023-02-15T05:21:45;16.25;;;7.32;;
46429;SDS011;32131;53.454;-6.180;2023-02-15T05:24:13;10.23;;;4.10;;
46429;SDS011;32131;53.454;-6.180;2023-02-15T05:26:59;4.45;;;2.33;;
46429;SDS011;32131;53.454;-6.180;2023-02-15T05:29:46;4.72;;;2.13;;
46429;SDS011;32131;53.454;-6.180;2023-02-15T05:32:14;5.82;;;2.00;;
46429;SDS011;32131;53.454;-6.180;2023-02-15T05:34:43;3.88;;;1.40;;
46429;SDS011;32131;53.454;-6.180;2023-02-15T05:37:11;1.50;;;0.95;;
46429;SDS011;32131;53.454;-6.180;2023-02-15T05:39:39;1.15;;;0.55;;
46429;SDS011;32131;53.454;-6.180;2023-02-15T05:42:07;2.80;;;0.50;;
46429;SDS011;32131;53.454;-6.180;2023-02-15T05:44:36;1.05;;;0.57;;
46429;SDS011;32131;53.454;-6.180;2023-02-15T05:47:05;1.05;;;0.50;;
46429;SDS011;32131;53.454;-6.180;2023-02-15T05:49:34;1.10;;;0.45;;
46429;SDS011;32131;53.454;-6.180;2023-02-15T05:52:02;0.17;;;0.15;;
46429;SDS011;32131;53.454;-6.180;2023-02-15T05:54:32;0.17;;;0.17;;
46429;SDS011;32131;53.454;-6.180;2023-02-15T05:57:00;1.33;;;0.35;;
46429;SDS011;32131;53.454;-6.180;2023-02-15T05:59:28;1.30;;;0.20;;
46429;SDS011;32131;53.454;-6.180;2023-02-15T06:01:57;0.60;;;0.20;;
46429;SDS011;32131;53.454;-6.180;2023-02-15T06:04:26;0.30;;;0.20;;
46429;SDS011;32131;53.454;-6.180;2023-02-15T06:06:55;1.15;;;0.30;;
46429;SDS011;32131;53.454;-6.180;2023-02-15T06:09:23;0.95;;;0.20;;
46429;SDS011;32131;53.454;-6.180;2023-02-15T06:11:52;0.25;;;0.10;;
46429;SDS011;32131;53.454;-6.180;2023-02-15T06:14:20;1.63;;;0.55;;
46429;SDS011;32131;53.454;-6.180;2023-02-15T06:16:49;2.42;;;0.10;;
46429;SDS011;32131;53.454;-6.180;2023-02-15T06:19:17;0.13;;;0.10;;
46429;SDS011;32131;53.454;-6.180;2023-02-15T06:21:47;0.30;;;0.17;;
46429;SDS011;32131;53.454;-6.180;2023-02-15T06:24:15;0.10;;;0.00;;
46429;SDS011;32131;53.454;-6.180;2023-02-15T06:26:43;1.85;;;0.55;;
46429;SDS011;32131;53.454;-6.180;2023-02-15T06:29:12;0.65;;;0.28;;
46429;SDS011;32131;53.454;-6.180;2023-02-15T06:31:41;2.05;;;0.30;;
46429;SDS011;32131;53.454;-6.180;2023-02-15T06:34:09;3.08;;;0.80;;
46429;SDS011;32131;53.454;-6.180;2023-02-15T06:36:37;1.20;;;0.50;;
46429;SDS011;32131;53.454;-6.180;2023-02-15T06:39:06;4.07;;;0.88;;
46429;SDS011;32131;53.454;-6.180;2023-02-15T06:41:35;1.58;;;0.65;;
46429;SDS011;32131;53.454;-6.180;2023-02-15T06:44:04;6.40;;;0.68;;
46429;SDS011;32131;53.454;-6.180;2023-02-15T06:46:32;3.80;;;0.55;;
46429;SDS011;32131;53.454;-6.180;2023-02-15T06:51:31;0.57;;;0.30;;
46429;SDS011;32131;53.454;-6.180;2023-02-15T06:54:00;7.13;;;0.75;;
46429;SDS011;32131;53.454;-6.180;2023-02-15T06:56:29;2.90;;;0.52;;
46429;SDS011;32131;53.454;-6.180;2023-02-15T06:58:58;1.70;;;0.50;;
46429;SDS011;32131;53.454;-6.180;2023-02-15T07:01:26;3.30;;;0.40;;
46429;SDS011;32131;53.454;-6.180;2023-02-15T07:03:54;0.93;;;0.50;;
46429;SDS011;32131;53.454;-6.180;2023-02-15T07:06:23;1.08;;;0.40;;
46429;SDS011;32131;53.454;-6.180;2023-02-15T07:08:52;1.67;;;0.50;;
46429;SDS011;32131;53.454;-6.180;2023-02-15T07:11:21;2.25;;;0.60;;
46429;SDS011;32131;53.454;-6.180;2023-02-15T07:14:08;1.13;;;0.50;;
46429;SDS011;32131;53.454;-6.180;2023-02-15T07:16:36;1.48;;;0.20;;
46429;SDS011;32131;53.454;-6.180;2023-02-15T07:19:05;0.25;;;0.10;;
46429;SDS011;32131;53.454;-6.180;2023-02-15T07:21:33;1.70;;;0.45;;
46429;SDS011;32131;53.454;-6.180;2023-02-15T07:24:02;2.47;;;0.30;;
46429;SDS011;32131;53.454;-6.180;2023-02-15T07:26:30;0.63;;;0.20;;
46429;SDS011;32131;53.454;-6.180;2023-02-15T07:29:00;4.47;;;0.40;;
46429;SDS011;32131;53.454;-6.180;2023-02-15T07:31:29;2.75;;;0.68;;
46429;SDS011;32131;53.454;-6.180;2023-02-15T07:33:58;2.08;;;0.40;;
46429;SDS011;32131;53.454;-6.180;2023-02-15T07:36:26;2.63;;;0.43;;
46429;SDS011;32131;53.454;-6.180;2023-02-15T07:38:54;2.03;;;0.38;;
46429;SDS011;32131;53.454;-6.180;2023-02-15T07:41:23;1.63;;;0.20;;
46429;SDS011;32131;53.454;-6.180;2023-02-15T07:43:52;0.40;;;0.20;;
46429;SDS011;32131;53.454;-6.180;2023-02-15T07:46:20;1.40;;;0.30;;
46429;SDS011;32131;53.454;-6.180;2023-02-15T07:48:50;1.45;;;0.40;;
46429;SDS011;32131;53.454;-6.180;2023-02-15T07:51:19;0.52;;;0.10;;
46429;SDS011;32131;53.454;-6.180;2023-02-15T07:53:47;0.65;;;0.20;;
46429;SDS011;32131;53.454;-6.180;2023-02-15T07:56:17;1.48;;;0.40;;
46429;SDS011;32131;53.454;-6.180;2023-02-15T07:58:46;1.33;;;0.30;;
46429;SDS011;32131;53.454;-6.180;2023-02-15T08:01:26;3.13;;;0.47;;
46429;SDS011;32131;53.454;-6.180;2023-02-15T08:04:01;1.55;;;0.40;;
46429;SDS011;32131;53.454;-6.180;2023-02-15T08:06:32;1.42;;;0.40;;
46429;SDS011;32131;53.454;-6.180;2023-02-15T08:09:02;1.38;;;0.50;;
46429;SDS011;32131;53.454;-6.180;2023-02-15T08:11:32;1.60;;;0.55;;
46429;SDS011;32131;53.454;-6.180;2023-02-15T08:14:06;8.30;;;0.63;;
46429;SDS011;32131;53.454;-6.180;2023-02-15T08:16:36;2.28;;;0.55;;
46429;SDS011;32131;53.454;-6.180;2023-02-15T08:19:07;2.78;;;0.45;;
46429;SDS011;32131;53.454;-6.180;2023-02-15T08:21:38;4.35;;;0.35;;
46429;SDS011;32131;53.454;-6.180;2023-02-15T08:24:08;4.88;;;0.75;;
46429;SDS011;32131;53.454;-6.180;2023-02-15T08:26:38;1.25;;;0.73;;
46429;SDS011;32131;53.454;-6.180;2023-02-15T08:29:11;0.80;;;0.50;;
46429;SDS011;32131;53.454;-6.180;2023-02-15T08:34:13;0.57;;;0.38;;
46429;SDS011;32131;53.454;-6.180;2023-02-15T08:36:45;4.10;;;0.60;;
46429;SDS011;32131;53.454;-6.180;2023-02-15T08:39:13;1.33;;;0.45;;
46429;SDS011;32131;53.454;-6.180;2023-02-15T08:41:43;0.52;;;0.40;;
46429;SDS011;32131;53.454;-6.180;2023-02-15T08:44:14;3.08;;;0.93;;
46429;SDS011;32131;53.454;-6.180;2023-02-15T08:46:43;1.25;;;0.45;;
46429;SDS011;32131;53.454;-6.180;2023-02-15T08:49:15;4.03;;;0.40;;
46429;SDS011;32131;53.454;-6.180;2023-02-15T08:51:44;1.70;;;0.60;;
46429;SDS011;32131;53.454;-6.180;2023-02-15T08:54:14;3.33;;;0.68;;
46429;SDS011;32131;53.454;-6.180;2023-02-15T08:56:44;4.90;;;0.57;;
46429;SDS011;32131;53.454;-6.180;2023-02-15T08:59:13;3.13;;;0.65;;
46429;SDS011;32131;53.454;-6.180;2023-02-15T09:01:43;4.15;;;1.02;;
46429;SDS011;32131;53.454;-6.180;2023-02-15T09:04:12;2.92;;;0.57;;
46429;SDS011;32131;53.454;-6.180;2023-02-15T09:06:43;6.82;;;0.70;;
46429;SDS011;32131;53.454;-6.180;2023-02-15T09:09:15;2.63;;;0.50;;
46429;SDS011;32131;53.454;-6.180;2023-02-15T09:11:45;4.15;;;1.30;;
46429;SDS011;32131;53.454;-6.180;2023-02-15T09:14:17;7.80;;;1.70;;
46429;SDS011;32131;53.454;-6.180;2023-02-15T09:16:51;4.57;;;0.90;;
46429;SDS011;32131;53.454;-6.180;2023-02-15T09:19:22;4.97;;;0.95;;
46429;SDS011;32131;53.454;-6.180;2023-02-15T09:21:52;3.72;;;0.52;;
46429;SDS011;32131;53.454;-6.180;2023-02-15T09:24:21;3.72;;;0.47;;
46429;SDS011;32131;53.454;-6.180;2023-02-15T09:26:49;2.65;;;0.50;;
46429;SDS011;32131;53.454;-6.180;2023-02-15T09:29:18;3.63;;;0.60;;
46429;SDS011;32131;53.454;-6.180;2023-02-15T09:31:47;3.77;;;0.87;;
46429;SDS011;32131;53.454;-6.180;2023-02-15T09:34:20;4.55;;;0.38;;
46429;SDS011;32131;53.454;-6.180;2023-02-15T09:36:52;1.23;;;0.40;;
46429;SDS011;32131;53.454;-6.180;2023-02-15T09:39:21;4.10;;;0.40;;
46429;SDS011;32131;53.454;-6.180;2023-02-15T09:51:12;1.00;;;0.20;;
46429;SDS011;32131;53.454;-6.180;2023-02-15T09:54:20;1.15;;;0.40;;
46429;SDS011;32131;53.454;-6.180;2023-02-15T09:57:23;0.77;;;0.30;;
46429;SDS011;32131;53.454;-6.180;2023-02-15T10:00:24;0.55;;;0.20;;
46429;SDS011;32131;53.454;-6.180;2023-02-15T10:03:28;0.25;;;0.20;;
46429;SDS011;32131;53.454;-6.180;2023-02-15T10:06:23;0.60;;;0.20;;
46429;SDS011;32131;53.454;-6.180;2023-02-15T10:09:14;2.50;;;0.20;;
46429;SDS011;32131;53.454;-6.180;2023-02-15T10:12:23;1.20;;;0.32;;
46429;SDS011;32131;53.454;-6.180;2023-02-15T10:15:27;0.88;;;0.40;;
46429;SDS011;32131;53.454;-6.180;2023-02-15T10:20:59;0.43;;;0.25;;
46429;SDS011;32131;53.454;-6.180;2023-02-15T10:23:45;0.90;;;0.32;;
46429;SDS011;32131;53.454;-6.180;2023-02-15T10:26:20;0.40;;;0.10;;
46429;SDS011;32131;53.454;-6.180;2023-02-15T10:31:22;6.93;;;0.45;;
46429;SDS011;32131;53.454;-6.180;2023-02-15T10:34:08;6.10;;;0.35;;
46429;SDS011;32131;53.454;-6.180;2023-02-15T10:37:00;3.47;;;0.43;;
46429;SDS011;32131;53.454;-6.180;2023-02-15T10:39:54;2.28;;;0.45;;
46429;SDS011;32131;53.454;-6.180;2023-02-15T10:42:31;1.50;;;0.30;;
46429;SDS011;32131;53.454;-6.180;2023-02-15T10:45:17;3.78;;;0.60;;
46429;SDS011;32131;53.454;-6.180;2023-02-15T10:47:55;4.55;;;0.47;;
46429;SDS011;32131;53.454;-6.180;2023-02-15T10:50:45;1.30;;;0.25;;
46429;SDS011;32131;53.454;-6.180;2023-02-15T10:53:26;0.90;;;0.28;;
46429;SDS011;32131;53.454;-6.180;2023-02-15T10:58:44;1.80;;;0.30;;
46429;SDS011;32131;53.454;-6.180;2023-02-15T11:01:24;6.07;;;0.43;;
46429;SDS011;32131;53.454;-6.180;2023-02-15T11:07:02;0.82;;;0.25;;
46429;SDS011;32131;53.454;-6.180;2023-02-15T11:09:36;2.03;;;0.35;;
46429;SDS011;32131;53.454;-6.180;2023-02-15T11:12:10;1.20;;;0.30;;
46429;SDS011;32131;53.454;-6.180;2023-02-15T11:14:43;5.70;;;0.60;;
46429;SDS011;32131;53.454;-6.180;2023-02-15T11:17:15;7.38;;;0.75;;
46429;SDS011;32131;53.454;-6.180;2023-02-15T11:19:49;7.07;;;0.82;;
46429;SDS011;32131;53.454;-6.180;2023-02-15T11:22:28;1.27;;;0.40;;
46429;SDS011;32131;53.454;-6.180;2023-02-15T11:24:59;3.35;;;0.57;;
46429;SDS011;32131;53.454;-6.180;2023-02-15T11:27:31;3.20;;;0.43;;
46429;SDS011;32131;53.454;-6.180;2023-02-15T11:32:31;2.00;;;0.45;;
46429;SDS011;32131;53.454;-6.180;2023-02-15T11:35:02;0.98;;;0.50;;
46429;SDS011;32131;53.454;-6.180;2023-02-15T11:37:40;1.08;;;0.38;;
46429;SDS011;32131;53.454;-6.180;2023-02-15T11:40:17;2.10;;;0.63;;
46429;SDS011;32131;53.454;-6.180;2023-02-15T11:42:50;3.63;;;0.45;;
46429;SDS011;32131;53.454;-6.180;2023-02-15T11:45:22;1.90;;;0.68;;
46429;SDS011;32131;53.454;-6.180;2023-02-15T11:47:55;5.55;;;0.73;;
46429;SDS011;32131;53.454;-6.180;2023-02-15T11:50:25;5.28;;;1.00;;
46429;SDS011;32131;53.454;-6.180;2023-02-15T11:52:56;2.83;;;0.68;;
46429;SDS011;32131;53.454;-6.180;2023-02-15T11:55:28;1.98;;;0.60;;
46429;SDS011;32131;53.454;-6.180;2023-02-15T11:58:01;8.77;;;0.95;;
46429;SDS011;32131;53.454;-6.180;2023-02-15T12:00:38;2.50;;;0.65;;
46429;SDS011;32131;53.454;-6.180;2023-02-15T12:03:12;5.63;;;0.80;;
46429;SDS011;32131;53.454;-6.180;2023-02-15T12:05:45;3.38;;;0.50;;
46429;SDS011;32131;53.454;-6.180;2023-02-15T12:08:17;2.88;;;0.80;;
46429;SDS011;32131;53.454;-6.180;2023-02-15T12:11:00;3.42;;;1.00;;
46429;SDS011;32131;53.454;-6.180;2023-02-15T12:13:35;2.33;;;0.65;;
46429;SDS011;32131;53.454;-6.180;2023-02-15T12:16:06;1.48;;;0.57;;
46429;SDS011;32131;53.454;-6.180;2023-02-15T12:18:39;2.78;;;0.63;;
46429;SDS011;32131;53.454;-6.180;2023-02-15T12:21:12;5.95;;;0.90;;
46429;SDS011;32131;53.454;-6.180;2023-02-15T12:23:46;4.10;;;0.77;;
46429;SDS011;32131;53.454;-6.180;2023-02-15T12:26:22;4.60;;;0.50;;
46429;SDS011;32131;53.454;-6.180;2023-02-15T12:28:53;6.63;;;1.27;;
46429;SDS011;32131;53.454;-6.180;2023-02-15T12:31:30;2.60;;;0.75;;
46429;SDS011;32131;53.454;-6.180;2023-02-15T12:34:09;4.53;;;0.85;;
46429;SDS011;32131;53.454;-6.180;2023-02-15T12:36:41;1.73;;;0.75;;
46429;SDS011;32131;53.454;-6.180;2023-02-15T12:39:19;4.00;;;0.98;;
46429;SDS011;32131;53.454;-6.180;2023-02-15T12:42:02;6.57;;;1.15;;
46429;SDS011;32131;53.454;-6.180;2023-02-15T12:47:03;6.13;;;0.80;;
46429;SDS011;32131;53.454;-6.180;2023-02-15T12:49:37;4.85;;;1.02;;
46429;SDS011;32131;53.454;-6.180;2023-02-15T12:52:22;6.00;;;0.98;;
46429;SDS011;32131;53.454;-6.180;2023-02-15T12:54:54;1.92;;;0.90;;
46429;SDS011;32131;53.454;-6.180;2023-02-15T12:57:42;5.07;;;1.13;;
46429;SDS011;32131;53.454;-6.180;2023-02-15T13:00:39;4.47;;;0.70;;
46429;SDS011;32131;53.454;-6.180;2023-02-15T13:03:14;0.95;;;0.50;;
46429;SDS011;32131;53.454;-6.180;2023-02-15T13:05:45;1.85;;;0.70;;
46429;SDS011;32131;53.454;-6.180;2023-02-15T13:08:16;4.65;;;1.27;;
46429;SDS011;32131;53.454;-6.180;2023-02-15T13:10:52;6.10;;;0.50;;
46429;SDS011;32131;53.454;-6.180;2023-02-15T13:13:24;2.28;;;0.73;;
46429;SDS011;32131;53.454;-6.180;2023-02-15T13:15:58;4.13;;;0.65;;
46429;SDS011;32131;53.454;-6.180;2023-02-15T13:18:30;1.90;;;0.50;;
46429;SDS011;32131;53.454;-6.180;2023-02-15T13:21:10;5.82;;;1.02;;
46429;SDS011;32131;53.454;-6.180;2023-02-15T13:23:43;5.70;;;0.73;;
46429;SDS011;32131;53.454;-6.180;2023-02-15T13:26:18;1.55;;;0.40;;
46429;SDS011;32131;53.454;-6.180;2023-02-15T13:28:48;3.13;;;0.63;;
46429;SDS011;32131;53.454;-6.180;2023-02-15T13:31:23;6.93;;;1.45;;
46429;SDS011;32131;53.454;-6.180;2023-02-15T13:33:54;4.45;;;0.95;;
46429;SDS011;32131;53.454;-6.180;2023-02-15T13:36:29;4.40;;;1.02;;
46429;SDS011;32131;53.454;-6.180;2023-02-15T13:39:10;5.53;;;0.80;;
46429;SDS011;32131;53.454;-6.180;2023-02-15T13:41:48;5.15;;;0.75;;
46429;SDS011;32131;53.454;-6.180;2023-02-15T13:44:28;7.05;;;1.40;;
46429;SDS011;32131;53.454;-6.180;2023-02-15T13:47:13;5.40;;;0.90;;
46429;SDS011;32131;53.454;-6.180;2023-02-15T13:49:52;5.20;;;0.95;;
46429;SDS011;32131;53.454;-6.180;2023-02-15T13:52:39;4.60;;;1.30;;
46429;SDS011;32131;53.454;-6.180;2023-02-15T13:58:15;5.53;;;1.27;;
46429;SDS011;32131;53.454;-6.180;2023-02-15T14:01:09;7.25;;;1.00;;
46429;SDS011;32131;53.454;-6.180;2023-02-15T14:07:08;4.25;;;0.88;;
46429;SDS011;32131;53.454;-6.180;2023-02-15T14:09:55;9.85;;;0.80;;
46429;SDS011;32131;53.454;-6.180;2023-02-15T14:12:36;5.65;;;0.88;;
46429;SDS011;32131;53.454;-6.180;2023-02-15T14:15:26;3.58;;;0.32;;
46429;SDS011;32131;53.454;-6.180;2023-02-15T14:18:07;2.15;;;0.80;;
46429;SDS011;32131;53.454;-6.180;2023-02-15T14:20:47;6.35;;;1.08;;
46429;SDS011;32131;53.454;-6.180;2023-02-15T14:23:46;3.55;;;0.40;;
46429;SDS011;32131;53.454;-6.180;2023-02-15T14:26:26;1.98;;;0.40;;
46429;SDS011;32131;53.454;-6.180;2023-02-15T14:29:06;8.45;;;0.70;;
46429;SDS011;32131;53.454;-6.180;2023-02-15T14:31:45;11.23;;;1.17;;
46429;SDS011;32131;53.454;-6.180;2023-02-15T14:34:18;2.72;;;0.77;;
46429;SDS011;32131;53.454;-6.180;2023-02-15T14:36:49;10.40;;;1.00;;
46429;SDS011;32131;53.454;-6.180;2023-02-15T14:42:18;4.70;;;0.50;;
46429;SDS011;32131;53.454;-6.180;2023-02-15T14:44:53;4.97;;;0.85;;
46429;SDS011;32131;53.454;-6.180;2023-02-15T14:47:27;4.35;;;1.02;;
46429;SDS011;32131;53.454;-6.180;2023-02-15T14:53:15;3.05;;;0.70;;
46429;SDS011;32131;53.454;-6.180;2023-02-15T14:55:45;5.70;;;1.08;;
46429;SDS011;32131;53.454;-6.180;2023-02-15T14:58:14;3.05;;;0.88;;
46429;SDS011;32131;53.454;-6.180;2023-02-15T15:00:42;9.63;;;0.85;;
46429;SDS011;32131;53.454;-6.180;2023-02-15T15:03:11;5.82;;;1.10;;
46429;SDS011;32131;53.454;-6.180;2023-02-15T15:05:48;4.63;;;0.88;;
46429;SDS011;32131;53.454;-6.180;2023-02-15T15:08:25;8.57;;;1.17;;
46429;SDS011;32131;53.454;-6.180;2023-02-15T15:14:15;3.80;;;0.90;;
46429;SDS011;32131;53.454;-6.180;2023-02-15T15:17:10;3.80;;;0.80;;
46429;SDS011;32131;53.454;-6.180;2023-02-15T15:25:10;7.68;;;1.83;;
46429;SDS011;32131;53.454;-6.180;2023-02-15T15:27:41;5.70;;;1.20;;
46429;SDS011;32131;53.454;-6.180;2023-02-15T15:46:13;11.48;;;1.45;;
46429;SDS011;32131;53.454;-6.180;2023-02-15T15:49:08;8.68;;;1.25;;
46429;SDS011;32131;53.454;-6.180;2023-02-15T15:51:40;4.10;;;0.95;;
46429;SDS011;32131;53.454;-6.180;2023-02-15T15:54:12;2.83;;;1.08;;
46429;SDS011;32131;53.454;-6.180;2023-02-15T15:56:43;5.75;;;1.02;;
46429;SDS011;32131;53.454;-6.180;2023-02-15T15:59:18;7.03;;;1.10;;
46429;SDS011;32131;53.454;-6.180;2023-02-15T16:01:49;4.72;;;0.77;;
46429;SDS011;32131;53.454;-6.180;2023-02-15T16:04:28;7.15;;;1.15;;
46429;SDS011;32131;53.454;-6.180;2023-02-15T16:06:58;6.15;;;0.63;;
46429;SDS011;32131;53.454;-6.180;2023-02-15T16:12:21;3.47;;;1.10;;
46429;SDS011;32131;53.454;-6.180;2023-02-15T16:14:50;8.13;;;0.93;;
46429;SDS011;32131;53.454;-6.180;2023-02-15T16:17:20;5.07;;;1.10;;
46429;SDS011;32131;53.454;-6.180;2023-02-15T16:19:52;5.72;;;1.50;;
46429;SDS011;32131;53.454;-6.180;2023-02-15T16:22:28;7.43;;;1.67;;
46429;SDS011;32131;53.454;-6.180;2023-02-15T16:25:15;10.10;;;1.15;;
46429;SDS011;32131;53.454;-6.180;2023-02-15T16:27:57;5.07;;;1.37;;
46429;SDS011;32131;53.454;-6.180;2023-02-15T16:30:33;8.02;;;1.00;;